sensor_id;sensor_type;location;lat;lon;timestamp;P1;durP1;ratioP1;P2;durP2;ratioP2
51066;SDS011;37112;45.892;-123.962;2023-04-07T00:00:14;0.20;;;0.20;;
51066;SDS011;37112;45.892;-123.962;2023-04-07T00:02:45;0.20;;;0.20;;
51066;SDS011;37112;45.892;-123.962;2023-04-07T00:04:55;0.30;;;0.30;;
51066;SDS011;37112;45.892;-123.962;2023-04-07T00:07:06;0.20;;;0.20;;
51066;SDS011;37112;45.892;-123.962;2023-04-07T00:09:15;0.30;;;0.30;;
51066;SDS011;37112;45.892;-123.962;2023-04-07T00:11:26;0.30;;;0.30;;
51066;SDS011;37112;45.892;-123.962;2023-04-07T00:13:36;0.30;;;0.30;;
51066;SDS011;37112;45.892;-123.962;2023-04-07T00:15:46;0.20;;;0.20;;
51066;SDS011;37112;45.892;-123.962;2023-04-07T00:17:56;0.30;;;0.30;;
51066;SDS011;37112;45.892;-123.962;2023-04-07T00:20:07;0.20;;;0.20;;
51066;SDS011;37112;45.892;-123.962;2023-04-07T00:22:18;0.30;;;0.30;;
51066;SDS011;37112;45.892;-123.962;2023-04-07T00:24:28;0.30;;;0.30;;
51066;SDS011;37112;45.892;-123.962;2023-04-07T00:26:39;0.30;;;0.30;;
51066;SDS011;37112;45.892;-123.962;2023-04-07T00:28:49;0.40;;;0.30;;
51066;SDS011;37112;45.892;-123.962;2023-04-07T00:30:59;0.30;;;0.20;;
51066;SDS011;37112;45.892;-123.962;2023-04-07T00:33:09;0.90;;;0.20;;
51066;SDS011;37112;45.892;-123.962;2023-04-07T00:35:19;0.20;;;0.20;;
51066;SDS011;37112;45.892;-123.962;2023-04-07T00:37:30;0.20;;;0.20;;
51066;SDS011;37112;45.892;-123.962;2023-04-07T00:39:40;0.20;;;0.20;;
51066;SDS011;37112;45.892;-123.962;2023-04-07T00:41:51;0.30;;;0.30;;
51066;SDS011;37112;45.892;-123.962;2023-04-07T00:44:01;0.70;;;0.30;;
51066;SDS011;37112;45.892;-123.962;2023-04-07T00:46:12;0.30;;;0.30;;
51066;SDS011;37112;45.892;-123.962;2023-04-07T00:48:22;0.20;;;0.20;;
51066;SDS011;37112;45.892;-123.962;2023-04-07T00:50:32;0.30;;;0.30;;
51066;SDS011;37112;45.892;-123.962;2023-04-07T00:52:42;0.30;;;0.30;;
51066;SDS011;37112;45.892;-123.962;2023-04-07T00:54:54;0.20;;;0.20;;
51066;SDS011;37112;45.892;-123.962;2023-04-07T00:57:05;1.00;;;0.30;;
51066;SDS011;37112;45.892;-123.962;2023-04-07T00:59:16;0.40;;;0.30;;
51066;SDS011;37112;45.892;-123.962;2023-04-07T01:01:29;0.20;;;0.20;;
51066;SDS011;37112;45.892;-123.962;2023-04-07T01:03:47;0.20;;;0.20;;
51066;SDS011;37112;45.892;-123.962;2023-04-07T01:06:00;0.20;;;0.20;;
51066;SDS011;37112;45.892;-123.962;2023-04-07T01:08:14;0.30;;;0.30;;
51066;SDS011;37112;45.892;-123.962;2023-04-07T01:10:30;0.20;;;0.20;;
51066;SDS011;37112;45.892;-123.962;2023-04-07T01:12:51;0.20;;;0.20;;
51066;SDS011;37112;45.892;-123.962;2023-04-07T01:15:09;0.80;;;0.30;;
51066;SDS011;37112;45.892;-123.962;2023-04-07T01:17:24;0.20;;;0.20;;
51066;SDS011;37112;45.892;-123.962;2023-04-07T01:19:37;0.20;;;0.20;;
51066;SDS011;37112;45.892;-123.962;2023-04-07T01:21:51;0.20;;;0.20;;
51066;SDS011;37112;45.892;-123.962;2023-04-07T01:24:17;0.30;;;0.30;;
51066;SDS011;37112;45.892;-123.962;2023-04-07T01:26:46;1.00;;;0.30;;
51066;SDS011;37112;45.892;-123.962;2023-04-07T01:29:06;0.30;;;0.30;;
51066;SDS011;37112;45.892;-123.962;2023-04-07T01:31:19;0.20;;;0.20;;
51066;SDS011;37112;45.892;-123.962;2023-04-07T01:33:30;0.30;;;0.30;;
51066;SDS011;37112;45.892;-123.962;2023-04-07T01:35:42;0.30;;;0.30;;
51066;SDS011;37112;45.892;-123.962;2023-04-07T01:37:53;0.30;;;0.30;;
51066;SDS011;37112;45.892;-123.962;2023-04-07T01:40:06;0.40;;;0.40;;
51066;SDS011;37112;45.892;-123.962;2023-04-07T01:42:18;0.70;;;0.40;;
51066;SDS011;37112;45.892;-123.962;2023-04-07T01:44:29;0.30;;;0.30;;
51066;SDS011;37112;45.892;-123.962;2023-04-07T01:46:42;3.60;;;0.60;;
51066;SDS011;37112;45.892;-123.962;2023-04-07T01:48:52;19.50;;;3.80;;
51066;SDS011;37112;45.892;-123.962;2023-04-07T01:51:03;18.90;;;3.00;;
51066;SDS011;37112;45.892;-123.962;2023-04-07T01:53:16;9.60;;;1.90;;
51066;SDS011;37112;45.892;-123.962;2023-04-07T01:55:26;11.50;;;1.60;;
51066;SDS011;37112;45.892;-123.962;2023-04-07T01:57:44;14.40;;;3.40;;
51066;SDS011;37112;45.892;-123.962;2023-04-07T01:59:56;24.90;;;4.10;;
51066;SDS011;37112;45.892;-123.962;2023-04-07T02:02:19;15.60;;;3.40;;
51066;SDS011;37112;45.892;-123.962;2023-04-07T02:04:29;20.80;;;3.50;;
51066;SDS011;37112;45.892;-123.962;2023-04-07T02:06:45;17.30;;;2.70;;
51066;SDS011;37112;45.892;-123.962;2023-04-07T02:09:05;14.50;;;2.70;;
51066;SDS011;37112;45.892;-123.962;2023-04-07T02:11:17;21.80;;;3.20;;
51066;SDS011;37112;45.892;-123.962;2023-04-07T02:13:33;11.20;;;2.20;;
51066;SDS011;37112;45.892;-123.962;2023-04-07T02:17:56;2.70;;;0.70;;
51066;SDS011;37112;45.892;-123.962;2023-04-07T02:20:08;1.70;;;0.50;;
51066;SDS011;37112;45.892;-123.962;2023-04-07T02:22:20;3.40;;;0.40;;
51066;SDS011;37112;45.892;-123.962;2023-04-07T02:24:30;1.70;;;0.50;;
51066;SDS011;37112;45.892;-123.962;2023-04-07T02:26:41;2.30;;;0.40;;
51066;SDS011;37112;45.892;-123.962;2023-04-07T02:28:52;0.60;;;0.30;;
51066;SDS011;37112;45.892;-123.962;2023-04-07T02:31:02;0.50;;;0.50;;
51066;SDS011;37112;45.892;-123.962;2023-04-07T02:33:12;15.10;;;3.10;;
51066;SDS011;37112;45.892;-123.962;2023-04-07T02:35:22;15.60;;;3.20;;
51066;SDS011;37112;45.892;-123.962;2023-04-07T02:37:33;18.70;;;2.60;;
51066;SDS011;37112;45.892;-123.962;2023-04-07T02:39:43;18.90;;;3.20;;
51066;SDS011;37112;45.892;-123.962;2023-04-07T02:41:53;21.30;;;3.30;;
51066;SDS011;37112;45.892;-123.962;2023-04-07T02:44:06;18.70;;;3.30;;
51066;SDS011;37112;45.892;-123.962;2023-04-07T02:46:16;15.70;;;3.10;;
51066;SDS011;37112;45.892;-123.962;2023-04-07T02:48:26;24.80;;;4.50;;
51066;SDS011;37112;45.892;-123.962;2023-04-07T02:50:36;24.40;;;4.30;;
51066;SDS011;37112;45.892;-123.962;2023-04-07T02:52:47;17.80;;;4.10;;
51066;SDS011;37112;45.892;-123.962;2023-04-07T02:54:57;10.10;;;2.40;;
51066;SDS011;37112;45.892;-123.962;2023-04-07T02:57:08;27.50;;;3.60;;
51066;SDS011;37112;45.892;-123.962;2023-04-07T02:59:21;23.20;;;4.40;;
51066;SDS011;37112;45.892;-123.962;2023-04-07T03:01:31;12.10;;;2.80;;
51066;SDS011;37112;45.892;-123.962;2023-04-07T03:03:41;16.40;;;2.70;;
51066;SDS011;37112;45.892;-123.962;2023-04-07T03:05:56;11.60;;;2.10;;
51066;SDS011;37112;45.892;-123.962;2023-04-07T03:08:07;17.40;;;2.50;;
51066;SDS011;37112;45.892;-123.962;2023-04-07T03:10:17;14.10;;;2.10;;
51066;SDS011;37112;45.892;-123.962;2023-04-07T03:12:27;12.60;;;2.30;;
51066;SDS011;37112;45.892;-123.962;2023-04-07T03:14:38;7.40;;;2.00;;
51066;SDS011;37112;45.892;-123.962;2023-04-07T03:16:49;8.40;;;2.30;;
51066;SDS011;37112;45.892;-123.962;2023-04-07T03:18:59;9.80;;;1.50;;
51066;SDS011;37112;45.892;-123.962;2023-04-07T03:21:11;14.20;;;2.20;;
51066;SDS011;37112;45.892;-123.962;2023-04-07T03:23:21;6.80;;;1.50;;
51066;SDS011;37112;45.892;-123.962;2023-04-07T03:25:35;5.40;;;1.50;;
51066;SDS011;37112;45.892;-123.962;2023-04-07T03:27:45;8.20;;;2.70;;
51066;SDS011;37112;45.892;-123.962;2023-04-07T03:29:55;30.00;;;4.40;;
51066;SDS011;37112;45.892;-123.962;2023-04-07T03:32:06;23.00;;;4.80;;
51066;SDS011;37112;45.892;-123.962;2023-04-07T03:34:16;19.60;;;3.90;;
51066;SDS011;37112;45.892;-123.962;2023-04-07T03:36:26;30.90;;;5.20;;
51066;SDS011;37112;45.892;-123.962;2023-04-07T03:38:38;20.20;;;4.30;;
51066;SDS011;37112;45.892;-123.962;2023-04-07T03:40:47;30.00;;;5.80;;
51066;SDS011;37112;45.892;-123.962;2023-04-07T03:42:58;38.50;;;7.20;;
51066;SDS011;37112;45.892;-123.962;2023-04-07T03:45:09;28.90;;;5.10;;
51066;SDS011;37112;45.892;-123.962;2023-04-07T03:47:23;31.90;;;8.30;;
51066;SDS011;37112;45.892;-123.962;2023-04-07T03:49:37;27.80;;;5.20;;
51066;SDS011;37112;45.892;-123.962;2023-04-07T03:51:46;27.50;;;5.10;;
51066;SDS011;37112;45.892;-123.962;2023-04-07T03:53:57;17.90;;;4.70;;
51066;SDS011;37112;45.892;-123.962;2023-04-07T03:56:11;36.60;;;6.60;;
51066;SDS011;37112;45.892;-123.962;2023-04-07T03:58:27;36.80;;;5.50;;
51066;SDS011;37112;45.892;-123.962;2023-04-07T04:00:37;38.70;;;6.90;;
51066;SDS011;37112;45.892;-123.962;2023-04-07T04:02:48;42.40;;;6.20;;
51066;SDS011;37112;45.892;-123.962;2023-04-07T04:04:58;31.40;;;6.70;;
51066;SDS011;37112;45.892;-123.962;2023-04-07T04:07:08;37.40;;;8.10;;
51066;SDS011;37112;45.892;-123.962;2023-04-07T04:09:22;44.00;;;8.70;;
51066;SDS011;37112;45.892;-123.962;2023-04-07T04:11:44;30.80;;;5.50;;
51066;SDS011;37112;45.892;-123.962;2023-04-07T04:13:55;30.20;;;5.40;;
51066;SDS011;37112;45.892;-123.962;2023-04-07T04:16:06;35.40;;;6.50;;
51066;SDS011;37112;45.892;-123.962;2023-04-07T04:18:19;28.80;;;7.00;;
51066;SDS011;37112;45.892;-123.962;2023-04-07T04:20:32;39.20;;;7.70;;
51066;SDS011;37112;45.892;-123.962;2023-04-07T04:22:43;48.70;;;9.00;;
51066;SDS011;37112;45.892;-123.962;2023-04-07T04:24:53;40.40;;;8.80;;
51066;SDS011;37112;45.892;-123.962;2023-04-07T04:27:04;32.40;;;5.60;;
51066;SDS011;37112;45.892;-123.962;2023-04-07T04:29:14;38.80;;;8.00;;
51066;SDS011;37112;45.892;-123.962;2023-04-07T04:31:25;43.10;;;7.70;;
51066;SDS011;37112;45.892;-123.962;2023-04-07T04:33:37;35.20;;;6.60;;
51066;SDS011;37112;45.892;-123.962;2023-04-07T04:35:47;30.30;;;7.10;;
51066;SDS011;37112;45.892;-123.962;2023-04-07T04:37:57;48.90;;;9.70;;
51066;SDS011;37112;45.892;-123.962;2023-04-07T04:40:09;35.40;;;7.80;;
51066;SDS011;37112;45.892;-123.962;2023-04-07T04:42:21;43.00;;;9.80;;
51066;SDS011;37112;45.892;-123.962;2023-04-07T04:44:32;34.50;;;6.80;;
51066;SDS011;37112;45.892;-123.962;2023-04-07T04:46:43;40.30;;;7.80;;
51066;SDS011;37112;45.892;-123.962;2023-04-07T04:48:53;44.30;;;8.60;;
51066;SDS011;37112;45.892;-123.962;2023-04-07T04:51:03;34.20;;;7.30;;
51066;SDS011;37112;45.892;-123.962;2023-04-07T04:53:15;19.70;;;6.50;;
51066;SDS011;37112;45.892;-123.962;2023-04-07T04:55:36;32.00;;;7.40;;
51066;SDS011;37112;45.892;-123.962;2023-04-07T04:57:49;42.30;;;8.50;;
51066;SDS011;37112;45.892;-123.962;2023-04-07T05:00:07;40.00;;;8.40;;
51066;SDS011;37112;45.892;-123.962;2023-04-07T05:02:19;28.60;;;5.60;;
51066;SDS011;37112;45.892;-123.962;2023-04-07T05:04:30;35.60;;;6.90;;
51066;SDS011;37112;45.892;-123.962;2023-04-07T05:06:52;26.40;;;4.10;;
51066;SDS011;37112;45.892;-123.962;2023-04-07T05:09:05;29.30;;;5.60;;
51066;SDS011;37112;45.892;-123.962;2023-04-07T05:11:21;15.50;;;4.10;;
51066;SDS011;37112;45.892;-123.962;2023-04-07T05:13:33;22.00;;;5.00;;
51066;SDS011;37112;45.892;-123.962;2023-04-07T05:15:43;29.30;;;5.50;;
51066;SDS011;37112;45.892;-123.962;2023-04-07T05:17:53;32.90;;;7.60;;
51066;SDS011;37112;45.892;-123.962;2023-04-07T05:20:05;25.40;;;5.00;;
51066;SDS011;37112;45.892;-123.962;2023-04-07T05:22:18;21.20;;;5.10;;
51066;SDS011;37112;45.892;-123.962;2023-04-07T05:24:28;37.20;;;6.60;;
51066;SDS011;37112;45.892;-123.962;2023-04-07T05:26:39;32.20;;;7.10;;
51066;SDS011;37112;45.892;-123.962;2023-04-07T05:28:50;32.30;;;8.10;;
51066;SDS011;37112;45.892;-123.962;2023-04-07T05:31:01;39.20;;;7.30;;
51066;SDS011;37112;45.892;-123.962;2023-04-07T05:33:12;39.80;;;6.30;;
51066;SDS011;37112;45.892;-123.962;2023-04-07T05:35:26;39.30;;;6.30;;
51066;SDS011;37112;45.892;-123.962;2023-04-07T05:37:36;44.70;;;7.80;;
51066;SDS011;37112;45.892;-123.962;2023-04-07T05:39:47;48.60;;;8.50;;
51066;SDS011;37112;45.892;-123.962;2023-04-07T05:41:57;50.80;;;10.00;;
51066;SDS011;37112;45.892;-123.962;2023-04-07T05:44:07;59.40;;;11.30;;
51066;SDS011;37112;45.892;-123.962;2023-04-07T05:46:19;60.00;;;11.80;;
51066;SDS011;37112;45.892;-123.962;2023-04-07T05:48:32;66.40;;;13.90;;
51066;SDS011;37112;45.892;-123.962;2023-04-07T05:50:42;46.80;;;8.80;;
51066;SDS011;37112;45.892;-123.962;2023-04-07T05:52:54;46.80;;;8.80;;
51066;SDS011;37112;45.892;-123.962;2023-04-07T05:55:06;37.80;;;7.50;;
51066;SDS011;37112;45.892;-123.962;2023-04-07T05:57:16;46.20;;;9.50;;
51066;SDS011;37112;45.892;-123.962;2023-04-07T05:59:28;64.00;;;10.20;;
51066;SDS011;37112;45.892;-123.962;2023-04-07T06:01:38;55.20;;;9.80;;
51066;SDS011;37112;45.892;-123.962;2023-04-07T06:03:48;40.00;;;8.40;;
51066;SDS011;37112;45.892;-123.962;2023-04-07T06:06:01;59.30;;;10.80;;
51066;SDS011;37112;45.892;-123.962;2023-04-07T06:08:12;51.00;;;10.70;;
51066;SDS011;37112;45.892;-123.962;2023-04-07T06:10:22;60.50;;;10.10;;
51066;SDS011;37112;45.892;-123.962;2023-04-07T06:12:32;62.50;;;9.60;;
51066;SDS011;37112;45.892;-123.962;2023-04-07T06:14:42;42.70;;;9.00;;
51066;SDS011;37112;45.892;-123.962;2023-04-07T06:16:53;66.20;;;10.20;;
51066;SDS011;37112;45.892;-123.962;2023-04-07T06:19:03;53.00;;;8.80;;
51066;SDS011;37112;45.892;-123.962;2023-04-07T06:21:13;67.70;;;9.20;;
51066;SDS011;37112;45.892;-123.962;2023-04-07T06:23:24;46.60;;;9.90;;
51066;SDS011;37112;45.892;-123.962;2023-04-07T06:25:34;48.10;;;10.50;;
51066;SDS011;37112;45.892;-123.962;2023-04-07T06:27:44;67.50;;;11.20;;
51066;SDS011;37112;45.892;-123.962;2023-04-07T06:29:55;62.30;;;10.70;;
51066;SDS011;37112;45.892;-123.962;2023-04-07T06:32:05;64.80;;;10.90;;
51066;SDS011;37112;45.892;-123.962;2023-04-07T06:34:15;41.00;;;9.50;;
51066;SDS011;37112;45.892;-123.962;2023-04-07T06:36:26;48.40;;;9.10;;
51066;SDS011;37112;45.892;-123.962;2023-04-07T06:38:36;39.50;;;7.60;;
51066;SDS011;37112;45.892;-123.962;2023-04-07T06:40:48;40.90;;;6.20;;
51066;SDS011;37112;45.892;-123.962;2023-04-07T06:43:05;30.70;;;5.20;;
51066;SDS011;37112;45.892;-123.962;2023-04-07T06:45:24;51.80;;;8.30;;
51066;SDS011;37112;45.892;-123.962;2023-04-07T06:47:33;66.50;;;8.90;;
51066;SDS011;37112;45.892;-123.962;2023-04-07T06:49:44;47.80;;;9.50;;
51066;SDS011;37112;45.892;-123.962;2023-04-07T06:51:54;51.20;;;9.60;;
51066;SDS011;37112;45.892;-123.962;2023-04-07T06:54:04;43.50;;;8.90;;
51066;SDS011;37112;45.892;-123.962;2023-04-07T06:56:18;47.90;;;9.90;;
51066;SDS011;37112;45.892;-123.962;2023-04-07T07:00:39;60.70;;;9.20;;
51066;SDS011;37112;45.892;-123.962;2023-04-07T07:02:50;49.50;;;8.60;;
51066;SDS011;37112;45.892;-123.962;2023-04-07T07:05:00;75.00;;;13.60;;
51066;SDS011;37112;45.892;-123.962;2023-04-07T07:07:10;54.40;;;10.50;;
51066;SDS011;37112;45.892;-123.962;2023-04-07T07:09:20;53.90;;;9.90;;
51066;SDS011;37112;45.892;-123.962;2023-04-07T07:11:32;68.10;;;14.40;;
51066;SDS011;37112;45.892;-123.962;2023-04-07T07:13:42;46.80;;;8.40;;
51066;SDS011;37112;45.892;-123.962;2023-04-07T07:15:53;49.40;;;10.40;;
51066;SDS011;37112;45.892;-123.962;2023-04-07T07:18:03;42.10;;;7.80;;
51066;SDS011;37112;45.892;-123.962;2023-04-07T07:20:13;56.40;;;8.00;;
51066;SDS011;37112;45.892;-123.962;2023-04-07T07:22:24;35.30;;;9.30;;
51066;SDS011;37112;45.892;-123.962;2023-04-07T07:24:34;44.00;;;9.10;;
51066;SDS011;37112;45.892;-123.962;2023-04-07T07:26:44;60.30;;;11.10;;
51066;SDS011;37112;45.892;-123.962;2023-04-07T07:28:54;47.60;;;10.20;;
51066;SDS011;37112;45.892;-123.962;2023-04-07T07:31:08;56.50;;;9.40;;
51066;SDS011;37112;45.892;-123.962;2023-04-07T07:33:20;37.60;;;7.30;;
51066;SDS011;37112;45.892;-123.962;2023-04-07T07:35:30;44.90;;;8.00;;
51066;SDS011;37112;45.892;-123.962;2023-04-07T07:37:42;53.60;;;10.00;;
51066;SDS011;37112;45.892;-123.962;2023-04-07T07:39:53;33.00;;;7.40;;
51066;SDS011;37112;45.892;-123.962;2023-04-07T07:42:03;32.60;;;8.50;;
51066;SDS011;37112;45.892;-123.962;2023-04-07T07:44:14;42.30;;;7.60;;
51066;SDS011;37112;45.892;-123.962;2023-04-07T07:46:25;44.40;;;6.70;;
51066;SDS011;37112;45.892;-123.962;2023-04-07T07:48:35;41.90;;;7.60;;
51066;SDS011;37112;45.892;-123.962;2023-04-07T07:50:46;45.70;;;8.90;;
51066;SDS011;37112;45.892;-123.962;2023-04-07T07:52:56;36.40;;;5.60;;
51066;SDS011;37112;45.892;-123.962;2023-04-07T07:55:07;43.40;;;7.70;;
51066;SDS011;37112;45.892;-123.962;2023-04-07T07:57:17;46.10;;;8.10;;
51066;SDS011;37112;45.892;-123.962;2023-04-07T07:59:27;37.00;;;7.50;;
51066;SDS011;37112;45.892;-123.962;2023-04-07T08:01:38;32.40;;;6.40;;
51066;SDS011;37112;45.892;-123.962;2023-04-07T08:03:47;38.10;;;6.60;;
51066;SDS011;37112;45.892;-123.962;2023-04-07T08:05:58;37.70;;;6.60;;
51066;SDS011;37112;45.892;-123.962;2023-04-07T08:08:09;27.00;;;6.50;;
51066;SDS011;37112;45.892;-123.962;2023-04-07T08:10:19;36.40;;;6.70;;
51066;SDS011;37112;45.892;-123.962;2023-04-07T08:12:30;34.80;;;6.50;;
51066;SDS011;37112;45.892;-123.962;2023-04-07T08:14:39;30.10;;;5.70;;
51066;SDS011;37112;45.892;-123.962;2023-04-07T08:16:50;28.00;;;6.20;;
51066;SDS011;37112;45.892;-123.962;2023-04-07T08:19:00;25.60;;;5.00;;
51066;SDS011;37112;45.892;-123.962;2023-04-07T08:21:09;29.40;;;6.40;;
51066;SDS011;37112;45.892;-123.962;2023-04-07T08:23:19;33.40;;;6.30;;
51066;SDS011;37112;45.892;-123.962;2023-04-07T08:25:29;31.70;;;5.20;;
51066;SDS011;37112;45.892;-123.962;2023-04-07T08:27:39;34.30;;;5.30;;
51066;SDS011;37112;45.892;-123.962;2023-04-07T08:29:50;22.50;;;4.60;;
51066;SDS011;37112;45.892;-123.962;2023-04-07T08:32:08;22.90;;;4.50;;
51066;SDS011;37112;45.892;-123.962;2023-04-07T08:34:17;27.40;;;4.40;;
51066;SDS011;37112;45.892;-123.962;2023-04-07T08:36:27;29.70;;;5.20;;
51066;SDS011;37112;45.892;-123.962;2023-04-07T08:38:38;26.70;;;5.80;;
51066;SDS011;37112;45.892;-123.962;2023-04-07T08:40:52;41.20;;;6.20;;
51066;SDS011;37112;45.892;-123.962;2023-04-07T08:43:07;30.70;;;5.20;;
51066;SDS011;37112;45.892;-123.962;2023-04-07T08:45:19;22.00;;;4.10;;
51066;SDS011;37112;45.892;-123.962;2023-04-07T08:47:31;19.80;;;3.90;;
51066;SDS011;37112;45.892;-123.962;2023-04-07T08:49:42;21.60;;;3.10;;
51066;SDS011;37112;45.892;-123.962;2023-04-07T08:51:58;24.50;;;3.50;;
51066;SDS011;37112;45.892;-123.962;2023-04-07T08:54:17;25.80;;;5.40;;
51066;SDS011;37112;45.892;-123.962;2023-04-07T08:56:27;41.60;;;5.60;;
51066;SDS011;37112;45.892;-123.962;2023-04-07T08:58:38;19.70;;;4.00;;
51066;SDS011;37112;45.892;-123.962;2023-04-07T09:00:49;15.10;;;3.00;;
51066;SDS011;37112;45.892;-123.962;2023-04-07T09:02:59;20.90;;;2.70;;
51066;SDS011;37112;45.892;-123.962;2023-04-07T09:05:10;21.00;;;3.40;;
51066;SDS011;37112;45.892;-123.962;2023-04-07T09:07:21;17.50;;;3.10;;
51066;SDS011;37112;45.892;-123.962;2023-04-07T09:09:31;27.30;;;5.60;;
51066;SDS011;37112;45.892;-123.962;2023-04-07T09:11:40;12.10;;;3.20;;
51066;SDS011;37112;45.892;-123.962;2023-04-07T09:13:50;28.30;;;4.30;;
51066;SDS011;37112;45.892;-123.962;2023-04-07T09:16:01;20.60;;;3.10;;
51066;SDS011;37112;45.892;-123.962;2023-04-07T09:18:12;23.00;;;4.20;;
51066;SDS011;37112;45.892;-123.962;2023-04-07T09:20:22;22.80;;;4.60;;
51066;SDS011;37112;45.892;-123.962;2023-04-07T09:22:36;16.90;;;2.90;;
51066;SDS011;37112;45.892;-123.962;2023-04-07T09:24:47;19.60;;;4.30;;
51066;SDS011;37112;45.892;-123.962;2023-04-07T09:27:11;17.80;;;2.90;;
51066;SDS011;37112;45.892;-123.962;2023-04-07T09:29:23;22.50;;;3.30;;
51066;SDS011;37112;45.892;-123.962;2023-04-07T09:31:43;17.60;;;4.00;;
51066;SDS011;37112;45.892;-123.962;2023-04-07T09:33:55;17.20;;;4.20;;
51066;SDS011;37112;45.892;-123.962;2023-04-07T09:36:05;12.70;;;3.00;;
51066;SDS011;37112;45.892;-123.962;2023-04-07T09:38:15;24.40;;;3.70;;
51066;SDS011;37112;45.892;-123.962;2023-04-07T09:40:26;16.60;;;2.60;;
51066;SDS011;37112;45.892;-123.962;2023-04-07T09:42:43;14.90;;;3.00;;
51066;SDS011;37112;45.892;-123.962;2023-04-07T09:44:54;18.20;;;2.50;;
51066;SDS011;37112;45.892;-123.962;2023-04-07T09:47:04;22.00;;;3.50;;
51066;SDS011;37112;45.892;-123.962;2023-04-07T09:49:14;18.30;;;4.60;;
51066;SDS011;37112;45.892;-123.962;2023-04-07T09:51:25;23.50;;;2.80;;
51066;SDS011;37112;45.892;-123.962;2023-04-07T09:53:42;22.30;;;4.30;;
51066;SDS011;37112;45.892;-123.962;2023-04-07T09:55:54;11.00;;;2.70;;
51066;SDS011;37112;45.892;-123.962;2023-04-07T09:58:05;26.30;;;4.30;;
51066;SDS011;37112;45.892;-123.962;2023-04-07T10:00:16;18.90;;;3.50;;
51066;SDS011;37112;45.892;-123.962;2023-04-07T10:02:27;24.60;;;4.30;;
51066;SDS011;37112;45.892;-123.962;2023-04-07T10:04:38;14.40;;;2.90;;
51066;SDS011;37112;45.892;-123.962;2023-04-07T10:06:48;24.40;;;3.00;;
51066;SDS011;37112;45.892;-123.962;2023-04-07T10:08:58;17.10;;;3.10;;
51066;SDS011;37112;45.892;-123.962;2023-04-07T10:11:10;25.70;;;4.10;;
51066;SDS011;37112;45.892;-123.962;2023-04-07T10:13:22;20.40;;;4.80;;
51066;SDS011;37112;45.892;-123.962;2023-04-07T10:15:33;25.70;;;4.00;;
51066;SDS011;37112;45.892;-123.962;2023-04-07T10:17:45;33.50;;;4.50;;
51066;SDS011;37112;45.892;-123.962;2023-04-07T10:19:59;20.10;;;3.10;;
51066;SDS011;37112;45.892;-123.962;2023-04-07T10:22:11;14.70;;;2.80;;
51066;SDS011;37112;45.892;-123.962;2023-04-07T10:24:26;21.70;;;5.40;;
51066;SDS011;37112;45.892;-123.962;2023-04-07T10:26:44;36.70;;;6.40;;
51066;SDS011;37112;45.892;-123.962;2023-04-07T10:28:58;42.90;;;7.70;;
51066;SDS011;37112;45.892;-123.962;2023-04-07T10:31:13;37.80;;;5.50;;
51066;SDS011;37112;45.892;-123.962;2023-04-07T10:36:06;30.40;;;6.30;;
51066;SDS011;37112;45.892;-123.962;2023-04-07T10:38:16;26.00;;;3.90;;
51066;SDS011;37112;45.892;-123.962;2023-04-07T10:40:28;19.20;;;3.70;;
51066;SDS011;37112;45.892;-123.962;2023-04-07T10:42:47;31.20;;;6.20;;
51066;SDS011;37112;45.892;-123.962;2023-04-07T10:44:57;18.60;;;3.10;;
51066;SDS011;37112;45.892;-123.962;2023-04-07T10:47:08;30.70;;;4.40;;
51066;SDS011;37112;45.892;-123.962;2023-04-07T10:49:19;14.60;;;2.60;;
51066;SDS011;37112;45.892;-123.962;2023-04-07T10:51:30;16.10;;;2.20;;
51066;SDS011;37112;45.892;-123.962;2023-04-07T10:53:39;5.90;;;1.00;;
51066;SDS011;37112;45.892;-123.962;2023-04-07T10:56:22;6.60;;;1.00;;
51066;SDS011;37112;45.892;-123.962;2023-04-07T10:58:33;8.50;;;1.70;;
51066;SDS011;37112;45.892;-123.962;2023-04-07T11:01:14;13.90;;;1.50;;
51066;SDS011;37112;45.892;-123.962;2023-04-07T11:03:27;12.30;;;1.80;;
51066;SDS011;37112;45.892;-123.962;2023-04-07T11:05:39;17.90;;;2.10;;
51066;SDS011;37112;45.892;-123.962;2023-04-07T11:07:50;13.60;;;2.30;;
51066;SDS011;37112;45.892;-123.962;2023-04-07T11:10:10;20.70;;;3.70;;
51066;SDS011;37112;45.892;-123.962;2023-04-07T11:12:24;21.10;;;3.20;;
51066;SDS011;37112;45.892;-123.962;2023-04-07T11:14:35;16.10;;;3.50;;
51066;SDS011;37112;45.892;-123.962;2023-04-07T11:16:46;14.30;;;3.90;;
51066;SDS011;37112;45.892;-123.962;2023-04-07T11:18:56;25.80;;;2.80;;
51066;SDS011;37112;45.892;-123.962;2023-04-07T11:21:06;11.50;;;3.10;;
51066;SDS011;37112;45.892;-123.962;2023-04-07T11:23:16;26.40;;;3.10;;
51066;SDS011;37112;45.892;-123.962;2023-04-07T11:25:27;15.10;;;2.90;;
51066;SDS011;37112;45.892;-123.962;2023-04-07T11:27:38;14.10;;;2.70;;
51066;SDS011;37112;45.892;-123.962;2023-04-07T11:29:51;12.90;;;2.30;;
51066;SDS011;37112;45.892;-123.962;2023-04-07T11:32:01;9.30;;;1.40;;
51066;SDS011;37112;45.892;-123.962;2023-04-07T11:34:11;5.90;;;1.20;;
51066;SDS011;37112;45.892;-123.962;2023-04-07T11:36:29;10.60;;;2.00;;
51066;SDS011;37112;45.892;-123.962;2023-04-07T11:38:41;6.80;;;1.00;;
51066;SDS011;37112;45.892;-123.962;2023-04-07T11:40:51;15.90;;;2.00;;
51066;SDS011;37112;45.892;-123.962;2023-04-07T11:43:02;16.40;;;3.10;;
51066;SDS011;37112;45.892;-123.962;2023-04-07T11:45:24;7.80;;;1.40;;
51066;SDS011;37112;45.892;-123.962;2023-04-07T11:47:35;16.90;;;2.80;;
51066;SDS011;37112;45.892;-123.962;2023-04-07T11:49:45;15.10;;;3.00;;
51066;SDS011;37112;45.892;-123.962;2023-04-07T11:51:59;33.70;;;5.20;;
51066;SDS011;37112;45.892;-123.962;2023-04-07T11:54:11;14.80;;;2.00;;
51066;SDS011;37112;45.892;-123.962;2023-04-07T11:56:21;6.70;;;2.00;;
51066;SDS011;37112;45.892;-123.962;2023-04-07T11:58:33;7.20;;;1.20;;
51066;SDS011;37112;45.892;-123.962;2023-04-07T12:00:53;16.90;;;2.30;;
51066;SDS011;37112;45.892;-123.962;2023-04-07T12:03:10;6.60;;;1.50;;
51066;SDS011;37112;45.892;-123.962;2023-04-07T12:05:21;11.00;;;2.70;;
51066;SDS011;37112;45.892;-123.962;2023-04-07T12:07:31;17.90;;;2.00;;
51066;SDS011;37112;45.892;-123.962;2023-04-07T12:09:41;10.60;;;2.10;;
51066;SDS011;37112;45.892;-123.962;2023-04-07T12:11:52;5.00;;;0.80;;
51066;SDS011;37112;45.892;-123.962;2023-04-07T12:14:03;5.90;;;1.10;;
51066;SDS011;37112;45.892;-123.962;2023-04-07T12:16:14;14.00;;;1.80;;
51066;SDS011;37112;45.892;-123.962;2023-04-07T12:18:24;8.80;;;1.50;;
51066;SDS011;37112;45.892;-123.962;2023-04-07T12:20:35;13.20;;;1.50;;
51066;SDS011;37112;45.892;-123.962;2023-04-07T12:22:45;11.80;;;2.00;;
51066;SDS011;37112;45.892;-123.962;2023-04-07T12:24:55;13.70;;;2.70;;
51066;SDS011;37112;45.892;-123.962;2023-04-07T12:27:05;9.60;;;1.90;;
51066;SDS011;37112;45.892;-123.962;2023-04-07T12:29:15;17.40;;;2.90;;
51066;SDS011;37112;45.892;-123.962;2023-04-07T12:31:25;14.90;;;3.50;;
51066;SDS011;37112;45.892;-123.962;2023-04-07T12:33:36;20.70;;;2.30;;
51066;SDS011;37112;45.892;-123.962;2023-04-07T12:35:46;19.00;;;1.40;;
51066;SDS011;37112;45.892;-123.962;2023-04-07T12:37:56;11.00;;;1.70;;